Time;durP1;ratioP1;P1;durP2;ratioP2;P2;SDS_P1;SDS_P2;PMS_P1;PMS_P2;Temp;Humidity;BMP_temperature;BMP_pressure;BME280_temperature;BME280_humidity;BME280_pressure;Samples;Min_cycle;Max_cycle;Signal;HPM_P1;HPM_P2
2022/12/05 00:01:17;;;;;;;58.50;28.90;;;4.60;99.90;;;;;;5092630;28;20073;-73
2022/12/05 00:03:42;;;;;;;54.58;28.05;;;4.70;99.90;;;;;;5093088;28;20028;-73
2022/12/05 00:06:08;;;;;;;54.47;26.70;;;4.50;99.90;;;;;;5092789;28;20107;-74
2022/12/05 00:08:34;;;;;;;51.83;26.65;;;4.50;99.90;;;;;;5092826;28;20020;-73
2022/12/05 00:11:00;;;;;;;55.60;26.60;;;4.60;99.90;;;;;;5092908;28;20456;-73
2022/12/05 00:13:25;;;;;;;60.88;28.50;;;4.60;99.90;;;;;;5062846;28;20025;-74
2022/12/05 00:15:51;;;;;;;65.47;29.58;;;4.50;99.90;;;;;;5090064;28;20024;-74
2022/12/05 00:18:17;;;;;;;59.90;30.70;;;4.50;99.90;;;;;;5092670;28;20024;-74
2022/12/05 00:20:47;;;;;;;55.03;28.02;;;4.60;99.90;;;;;;5092791;28;20369;-74
2022/12/05 00:23:13;;;;;;;70.22;31.15;;;4.70;99.90;;;;;;5092607;28;20028;-74
2022/12/05 00:25:39;;;;;;;71.40;32.92;;;4.80;99.90;;;;;;5092638;28;20031;-73
2022/12/05 00:28:05;;;;;;;68.43;30.83;;;4.80;99.90;;;;;;5092425;28;20028;-74
2022/12/05 00:30:31;;;;;;;75.65;35.05;;;5.00;99.90;;;;;;5092536;28;20103;-74
2022/12/05 00:32:57;;;;;;;69.57;31.70;;;5.00;99.90;;;;;;5091115;28;20111;-74
2022/12/05 00:35:23;;;;;;;73.95;34.92;;;4.90;99.90;;;;;;5092852;28;20067;-73
2022/12/05 00:37:50;;;;;;;67.63;30.45;;;4.90;99.90;;;;;;5092314;28;20062;-74
2022/12/05 00:40:16;;;;;;;75.97;35.50;;;4.80;99.90;;;;;;5092633;28;20089;-74
2022/12/05 00:42:42;;;;;;;62.97;31.35;;;4.80;99.90;;;;;;5092224;28;20041;-74
2022/12/05 00:45:08;;;;;;;58.90;30.27;;;4.80;99.90;;;;;;5092584;28;20035;-74
2022/12/05 00:47:35;;;;;;;68.93;30.20;;;5.10;99.90;;;;;;5092296;28;20758;-74
2022/12/05 00:50:02;;;;;;;70.70;32.95;;;5.10;99.90;;;;;;5091319;28;20039;-74
2022/12/05 00:52:28;;;;;;;75.47;33.72;;;4.80;99.90;;;;;;5092742;28;20169;-74
2022/12/05 00:54:54;;;;;;;67.85;32.53;;;4.60;99.90;;;;;;5096582;28;20058;-74
2022/12/05 00:57:19;;;;;;;73.63;33.88;;;4.70;99.90;;;;;;5096007;28;20104;-74
2022/12/05 00:59:46;;;;;;;67.63;32.75;;;4.70;99.90;;;;;;5084028;28;20035;-74
2022/12/05 01:02:11;;;;;;;68.97;31.58;;;4.60;99.90;;;;;;5091106;28;20107;-74
2022/12/05 01:04:37;;;;;;;70.78;32.42;;;4.60;99.90;;;;;;5085087;28;20111;-74
2022/12/05 01:07:03;;;;;;;75.82;33.55;;;4.60;99.90;;;;;;5096142;28;20036;-74
2022/12/05 01:09:29;;;;;;;75.65;32.90;;;4.70;99.90;;;;;;5096507;28;20545;-74
2022/12/05 01:11:55;;;;;;;64.40;30.20;;;4.70;99.90;;;;;;5095856;28;20024;-74
2022/12/05 01:14:24;;;;;;;58.45;29.17;;;4.60;99.90;;;;;;5095897;28;20379;-74
2022/12/05 01:16:52;;;;;;;62.97;28.90;;;4.50;99.90;;;;;;5096055;28;20032;-74
2022/12/05 01:19:23;;;;;;;59.90;29.48;;;4.60;99.90;;;;;;5094341;28;20044;-74
2022/12/05 01:21:50;;;;;;;70.72;32.22;;;4.60;99.90;;;;;;5096168;28;20428;-73
2022/12/05 01:24:17;;;;;;;72.85;32.95;;;4.30;99.90;;;;;;5095794;28;20099;-74
2022/12/05 01:26:43;;;;;;;83.88;38.03;;;4.30;99.90;;;;;;5095430;28;20379;-74
2022/12/05 01:29:12;;;;;;;71.43;31.33;;;4.30;99.90;;;;;;5095215;28;20017;-74
2022/12/05 01:31:38;;;;;;;54.25;28.55;;;4.30;99.90;;;;;;5095927;28;20020;-74
2022/12/05 01:34:06;;;;;;;59.28;28.55;;;4.50;99.90;;;;;;5094666;28;20032;-74
2022/12/05 01:36:33;;;;;;;78.88;35.15;;;4.60;99.90;;;;;;5094659;28;20028;-74
2022/12/05 01:38:59;;;;;;;94.80;37.25;;;4.60;99.90;;;;;;5095643;28;20028;-73
2022/12/05 01:41:29;;;;;;;83.05;35.75;;;4.40;99.90;;;;;;5095387;28;20035;-74
2022/12/05 01:44:02;;;;;;;64.90;30.73;;;4.60;99.90;;;;;;5095275;28;20020;-73
2022/12/05 01:46:34;;;;;;;62.28;28.75;;;4.70;99.90;;;;;;5094180;28;20036;-74
2022/12/05 01:49:08;;;;;;;58.55;29.88;;;4.60;99.90;;;;;;5095452;28;20369;-74
2022/12/05 01:51:37;;;;;;;85.57;36.90;;;4.70;99.90;;;;;;5095529;28;20354;-74
2022/12/05 01:54:04;;;;;;;75.60;33.70;;;4.70;99.90;;;;;;5095243;28;20538;-74
2022/12/05 01:56:31;;;;;;;87.72;39.63;;;4.80;99.90;;;;;;5094979;28;20111;-74
2022/12/05 01:58:58;;;;;;;77.57;36.88;;;5.00;99.90;;;;;;5093801;28;20448;-74
2022/12/05 02:01:24;;;;;;;95.15;41.47;;;5.10;99.90;;;;;;5095216;28;20036;-74
2022/12/05 02:03:53;;;;;;;82.35;36.60;;;5.20;99.90;;;;;;5094489;28;20028;-74
2022/12/05 02:06:20;;;;;;;95.55;41.80;;;5.10;99.90;;;;;;5094427;28;20043;-74
2022/12/05 02:08:46;;;;;;;87.15;39.83;;;4.50;99.90;;;;;;5094727;28;20146;-74
2022/12/05 02:11:12;;;;;;;89.40;39.17;;;4.70;99.90;;;;;;5094503;28;20431;-74
2022/12/05 02:13:44;;;;;;;90.57;41.60;;;4.70;99.90;;;;;;5095341;28;20354;-74
2022/12/05 02:16:35;;;;;;;87.50;38.67;;;4.90;99.90;;;;;;5094590;28;20027;-74
2022/12/05 02:19:22;;;;;;;98.22;41.53;;;4.60;99.90;;;;;;5094680;28;20468;-74
2022/12/05 02:22:15;;;;;;;94.85;42.80;;;4.70;99.90;;;;;;5094574;28;20024;-74
2022/12/05 02:25:00;;;;;;;98.47;40.05;;;4.90;99.90;;;;;;5094344;28;20024;-74
2022/12/05 02:27:48;;;;;;;93.47;41.65;;;4.90;99.90;;;;;;5076173;28;20039;-73
2022/12/05 02:30:49;;;;;;;101.70;43.33;;;4.70;99.90;;;;;;5093307;28;20024;-74
2022/12/05 02:33:33;;;;;;;100.88;40.28;;;4.60;99.90;;;;;;5094743;28;20032;-74
2022/12/05 02:36:23;;;;;;;97.60;41.78;;;4.90;99.90;;;;;;5086712;28;20461;-74
2022/12/05 02:39:01;;;;;;;100.65;44.33;;;5.00;99.90;;;;;;5065040;28;20396;-74
2022/12/05 02:41:32;;;;;;;92.38;43.13;;;5.20;99.90;;;;;;5067239;28;20033;-74
2022/12/05 02:44:38;;;;;;;70.57;33.58;;;5.00;99.90;;;;;;5072988;28;20090;-74
2022/12/05 02:47:07;;;;;;;60.40;31.55;;;4.90;99.90;;;;;;5061573;28;20059;-74
2022/12/05 02:49:35;;;;;;;60.80;31.33;;;4.80;99.90;;;;;;5073833;28;20384;-74
2022/12/05 02:52:04;;;;;;;62.08;32.15;;;4.70;99.90;;;;;;5073855;28;20385;-74
2022/12/05 02:54:37;;;;;;;64.20;32.45;;;4.70;99.90;;;;;;5073588;28;20101;-74
2022/12/05 02:57:04;;;;;;;60.45;32.67;;;4.50;99.90;;;;;;5072194;28;20028;-74
2022/12/05 02:59:30;;;;;;;62.08;33.90;;;4.80;99.90;;;;;;5073863;28;20032;-74
2022/12/05 03:01:56;;;;;;;65.78;34.03;;;4.90;99.90;;;;;;5073692;28;20024;-74
2022/12/05 03:04:23;;;;;;;63.83;33.38;;;4.60;99.90;;;;;;5073563;28;20021;-74
2022/12/05 03:07:03;;;;;;;66.43;33.00;;;4.60;99.90;;;;;;5073238;28;20530;-74
2022/12/05 03:09:55;;;;;;;76.63;34.55;;;4.40;99.90;;;;;;5072116;28;20029;-74
2022/12/05 03:12:37;;;;;;;64.45;34.40;;;4.60;99.90;;;;;;5073555;28;20381;-73
2022/12/05 03:15:15;;;;;;;69.55;35.13;;;4.70;99.90;;;;;;5073307;28;20028;-74
2022/12/05 03:17:48;;;;;;;81.85;35.63;;;4.70;99.90;;;;;;5060931;28;20040;-74
2022/12/05 03:20:27;;;;;;;69.22;35.00;;;5.00;99.90;;;;;;5073568;28;20040;-73
2022/12/05 03:23:05;;;;;;;69.75;33.92;;;4.60;99.90;;;;;;5073352;28;20439;-73
2022/12/05 03:25:48;;;;;;;76.53;36.22;;;4.50;99.90;;;;;;5055154;28;20472;-73
2022/12/05 03:28:38;;;;;;;73.72;35.25;;;4.70;99.90;;;;;;5073283;28;20044;-74
2022/12/05 03:31:09;;;;;;;76.90;36.25;;;4.70;99.90;;;;;;5073344;28;20059;-73
2022/12/05 03:33:41;;;;;;;74.57;35.25;;;5.00;99.90;;;;;;5073551;28;20438;-74
2022/12/05 03:36:07;;;;;;;;;;;4.90;99.90;;;;;;5073250;28;20742;-74
2022/12/05 03:38:44;;;;;;;78.28;37.08;;;5.10;99.90;;;;;;5054691;28;19915;-74
2022/12/05 03:41:37;;;;;;;79.57;37.85;;;4.90;99.90;;;;;;5072877;28;20059;-74
2022/12/05 03:44:14;;;;;;;75.30;36.55;;;4.80;99.90;;;;;;5072937;28;20082;-74
2022/12/05 03:46:46;;;;;;;69.40;33.67;;;5.00;99.90;;;;;;5059493;28;20032;-74
2022/12/05 03:49:23;;;;;;;58.63;30.73;;;4.80;99.90;;;;;;5071877;28;20374;-74
2022/12/05 03:52:14;;;;;;;52.85;27.35;;;5.00;99.90;;;;;;5059714;28;20423;-74
2022/12/05 03:54:55;;;;;;;59.83;31.02;;;5.00;99.90;;;;;;5072804;28;20032;-74
2022/12/05 03:57:29;;;;;;;62.63;31.17;;;5.00;99.90;;;;;;5071448;28;20040;-74
2022/12/05 04:00:07;;;;;;;62.55;33.83;;;5.00;99.90;;;;;;5072728;28;20035;-74
2022/12/05 04:02:44;;;;;;;69.45;34.45;;;4.90;99.90;;;;;;5071429;28;20060;-74
2022/12/05 04:05:21;;;;;;;72.22;34.42;;;5.00;99.90;;;;;;5072660;28;20423;-74
2022/12/05 04:07:54;;;;;;;61.35;33.17;;;5.30;99.90;;;;;;5072681;28;20040;-74
2022/12/05 04:10:25;;;;;;;73.55;34.80;;;5.20;99.90;;;;;;5072501;28;20031;-74
2022/12/05 04:12:54;;;;;;;73.53;35.60;;;5.20;99.90;;;;;;5072733;28;20035;-74
2022/12/05 04:15:26;;;;;;;59.08;31.85;;;5.00;99.90;;;;;;5072698;28;20369;-74
2022/12/05 04:17:59;;;;;;;52.88;30.52;;;4.90;99.90;;;;;;5054690;28;20040;-74
2022/12/05 04:23:25;;;;;;;55.17;30.23;;;5.20;99.90;;;;;;5072468;28;20493;-74
2022/12/05 04:26:22;;;;;;;69.95;35.20;;;5.30;99.90;;;;;;5072585;28;20037;-74
2022/12/05 04:28:55;;;;;;;70.50;37.15;;;5.50;99.90;;;;;;5074997;28;20469;-74
2022/12/05 04:31:31;;;;;;;68.40;35.05;;;5.60;99.90;;;;;;5076764;28;20117;-75
2022/12/05 04:34:04;;;;;;;65.75;34.35;;;5.20;99.90;;;;;;5075490;28;20028;-74
2022/12/05 04:36:40;;;;;;;72.20;35.55;;;5.20;99.90;;;;;;5058281;28;20595;-74
2022/12/05 04:39:39;;;;;;;86.72;40.20;;;5.20;99.90;;;;;;5058620;28;20029;-74
2022/12/05 04:42:11;;;;;;;67.35;34.83;;;5.10;99.90;;;;;;5076609;28;20333;-74
2022/12/05 04:44:47;;;;;;;67.90;34.50;;;5.20;99.90;;;;;;5076450;28;20423;-74
2022/12/05 04:47:15;;;;;;;53.38;28.95;;;5.20;99.90;;;;;;5076719;28;20044;-74
2022/12/05 04:49:43;;;;;;;50.00;27.13;;;5.00;99.90;;;;;;5076670;28;20032;-75
2022/12/05 04:52:11;;;;;;;44.47;25.35;;;4.90;99.90;;;;;;5077328;28;20017;-74
2022/12/05 04:54:45;;;;;;;49.83;25.70;;;4.80;99.90;;;;;;5076250;28;20039;-74
2022/12/05 04:57:23;;;;;;;58.03;28.90;;;4.90;99.90;;;;;;5076221;28;20025;-74
2022/12/05 04:59:49;;;;;;;55.97;29.73;;;4.80;99.90;;;;;;5075853;28;20098;-74
2022/12/05 05:02:22;;;;;;;54.53;27.08;;;4.90;99.90;;;;;;5075945;28;20538;-74
2022/12/05 05:04:51;;;;;;;51.40;28.38;;;4.80;99.90;;;;;;5075570;28;20423;-74
2022/12/05 05:07:18;;;;;;;53.13;28.63;;;4.70;99.90;;;;;;5075876;28;20035;-74
2022/12/05 05:09:44;;;;;;;53.85;28.08;;;4.60;99.90;;;;;;5075605;28;20069;-74
2022/12/05 05:12:11;;;;;;;51.83;29.60;;;4.70;99.90;;;;;;5074642;28;20056;-74
2022/12/05 05:14:36;;;;;;;54.90;28.58;;;4.80;99.90;;;;;;5075761;28;20028;-74
2022/12/05 05:17:02;;;;;;;53.50;31.05;;;4.80;99.90;;;;;;5076090;28;20380;-74
2022/12/05 05:19:28;;;;;;;50.72;30.25;;;5.00;99.90;;;;;;5074029;28;20094;-74
2022/12/05 05:21:54;;;;;;;53.17;30.25;;;5.10;99.90;;;;;;5075809;28;20025;-74
2022/12/05 05:24:22;;;;;;;58.65;32.83;;;5.00;99.90;;;;;;5075781;28;20032;-74
2022/12/05 05:26:48;;;;;;;57.90;31.77;;;5.20;99.90;;;;;;5075507;28;20503;-74
2022/12/05 05:29:15;;;;;;;61.85;32.63;;;5.10;99.90;;;;;;5075716;28;20024;-74
2022/12/05 05:31:41;;;;;;;57.05;31.30;;;5.10;99.90;;;;;;5074117;28;20028;-74
2022/12/05 05:34:07;;;;;;;53.42;30.77;;;5.00;99.90;;;;;;5074017;28;20027;-74
2022/12/05 05:36:33;;;;;;;54.15;31.77;;;5.00;99.90;;;;;;5075357;28;20111;-74
2022/12/05 05:39:00;;;;;;;57.47;32.33;;;5.10;99.90;;;;;;5073818;28;20024;-74
2022/12/05 05:41:32;;;;;;;65.82;35.42;;;4.90;99.90;;;;;;5074122;28;20391;-74
2022/12/05 05:43:58;;;;;;;59.63;32.38;;;5.10;99.90;;;;;;5074978;28;20135;-74
2022/12/05 05:46:27;;;;;;;60.78;31.50;;;5.20;99.90;;;;;;5073831;28;20051;-74
2022/12/05 05:48:53;;;;;;;65.93;34.22;;;5.30;99.90;;;;;;5056905;28;20034;-74
2022/12/05 05:51:19;;;;;;;70.90;34.75;;;5.40;99.90;;;;;;5073966;28;20103;-75
2022/12/05 05:53:46;;;;;;;74.05;35.60;;;5.30;99.90;;;;;;5075272;28;20028;-74
2022/12/05 05:56:18;;;;;;;70.28;37.13;;;5.30;99.90;;;;;;5076668;28;20058;-75
2022/12/05 05:58:44;;;;;;;68.57;35.33;;;5.50;99.90;;;;;;5075737;28;20035;-74
2022/12/05 06:01:13;;;;;;;61.30;30.42;;;5.40;99.90;;;;;;5074345;28;20037;-73
2022/12/05 06:03:40;;;;;;;59.45;32.33;;;5.40;99.90;;;;;;5074825;28;20108;-73
2022/12/05 06:06:08;;;;;;;60.67;31.92;;;5.30;99.90;;;;;;5074687;28;20035;-73
2022/12/05 06:08:36;;;;;;;54.22;29.63;;;5.20;99.90;;;;;;5073394;28;20028;-73
2022/12/05 06:11:13;;;;;;;51.05;28.73;;;5.10;99.90;;;;;;5073313;28;20107;-73
2022/12/05 06:13:39;;;;;;;52.50;28.55;;;5.10;99.90;;;;;;5074798;28;20036;-73
2022/12/05 06:16:08;;;;;;;45.42;27.20;;;5.10;99.90;;;;;;5074279;28;20047;-73
2022/12/05 06:18:34;;;;;;;49.50;28.58;;;5.20;99.90;;;;;;5074496;28;20389;-73
2022/12/05 06:21:00;;;;;;;58.67;28.45;;;5.20;99.90;;;;;;5074663;28;20029;-74
2022/12/05 06:23:26;;;;;;;51.22;29.42;;;5.00;99.90;;;;;;5073323;28;20032;-73
2022/12/05 06:25:53;;;;;;;45.90;27.23;;;5.10;99.90;;;;;;5074429;28;20396;-73
2022/12/05 06:28:21;;;;;;;47.70;28.30;;;5.10;99.90;;;;;;5074308;28;20194;-73
2022/12/05 06:30:47;;;;;;;51.20;29.15;;;5.20;99.90;;;;;;5073968;28;20024;-73
2022/12/05 06:33:13;;;;;;;49.33;28.50;;;5.20;99.90;;;;;;5073237;28;20537;-73
2022/12/05 06:35:39;;;;;;;52.65;30.60;;;5.20;99.90;;;;;;5074067;28;20465;-73
2022/12/05 06:38:06;;;;;;;54.40;30.70;;;5.40;99.90;;;;;;5073222;28;20384;-73
2022/12/05 06:40:32;;;;;;;57.25;31.17;;;5.30;99.90;;;;;;5073992;28;20464;-73
2022/12/05 06:42:58;;;;;;;53.88;31.40;;;5.30;99.90;;;;;;5083859;28;20502;-73
2022/12/05 06:45:24;;;;;;;76.25;37.53;;;5.20;99.90;;;;;;5072626;28;20025;-74
2022/12/05 06:47:50;;;;;;;68.07;33.55;;;5.20;99.90;;;;;;5072512;28;20056;-73
2022/12/05 06:50:17;;;;;;;56.45;31.13;;;5.20;99.90;;;;;;5073188;28;20032;-73
2022/12/05 06:52:43;;;;;;;51.10;28.98;;;5.20;99.90;;;;;;5067776;28;20041;-74
2022/12/05 06:55:09;;;;;;;58.78;31.83;;;5.30;99.90;;;;;;5055990;28;20120;-73
2022/12/05 06:57:35;;;;;;;60.22;31.42;;;5.20;99.90;;;;;;5069895;28;20095;-73
2022/12/05 07:02:45;;;;;;;95.40;43.47;;;5.30;99.90;;;;;;5071308;28;20400;-73
2022/12/05 07:05:11;;;;;;;80.18;40.10;;;5.20;99.90;;;;;;5071273;28;20112;-74
2022/12/05 07:07:37;;;;;;;61.85;33.72;;;5.20;99.90;;;;;;5072418;28;20032;-73
2022/12/05 07:10:05;;;;;;;59.85;32.25;;;5.30;99.90;;;;;;5072704;28;20022;-74
2022/12/05 07:12:32;;;;;;;56.08;31.50;;;5.50;99.90;;;;;;5072453;28;20484;-74
2022/12/05 07:14:58;;;;;;;52.38;30.23;;;5.30;99.90;;;;;;5072343;28;20050;-74
2022/12/05 07:17:24;;;;;;;62.40;31.55;;;5.30;99.90;;;;;;5072300;28;20073;-74
2022/12/05 07:19:51;;;;;;;60.03;31.65;;;5.20;99.90;;;;;;5072599;28;20541;-74
2022/12/05 07:22:19;;;;;;;63.47;33.17;;;5.20;99.90;;;;;;5066765;28;20019;-74
2022/12/05 07:24:45;;;;;;;59.55;33.00;;;5.30;99.90;;;;;;5065055;28;20032;-74
2022/12/05 07:27:11;;;;;;;58.00;32.83;;;5.50;99.90;;;;;;5071980;28;20032;-74
2022/12/05 07:29:37;;;;;;;56.22;31.42;;;5.40;99.90;;;;;;5080497;28;20021;-74
2022/12/05 07:32:03;;;;;;;48.05;28.67;;;5.30;99.90;;;;;;5074784;28;20511;-74
2022/12/05 07:34:28;;;;;;;51.40;29.58;;;5.40;99.90;;;;;;5071799;28;20020;-74
2022/12/05 07:36:54;;;;;;;52.38;31.33;;;5.40;99.90;;;;;;5076430;28;20042;-75
2022/12/05 07:39:20;;;;;;;58.05;30.73;;;5.50;99.90;;;;;;5072334;28;20044;-74
2022/12/05 07:41:45;;;;;;;52.90;30.35;;;5.60;99.90;;;;;;5072494;28;20214;-73
2022/12/05 07:44:15;;;;;;;49.63;29.20;;;5.60;99.90;;;;;;5072527;28;20469;-73
2022/12/05 07:46:41;;;;;;;51.45;28.90;;;5.70;99.90;;;;;;5077726;28;20048;-73
2022/12/05 07:49:07;;;;;;;50.83;30.90;;;5.60;99.90;;;;;;5071331;28;20024;-73
2022/12/05 07:51:34;;;;;;;50.13;30.52;;;5.20;99.90;;;;;;5069147;28;20020;-72
2022/12/05 07:54:00;;;;;;;48.33;27.35;;;5.40;99.90;;;;;;5063413;28;20039;-73
2022/12/05 07:56:26;;;;;;;51.20;31.40;;;5.50;99.90;;;;;;5072808;28;20013;-73
2022/12/05 07:58:53;;;;;;;64.57;30.92;;;5.40;99.90;;;;;;5071734;28;20399;-74
2022/12/05 08:01:24;;;;;;;59.90;30.13;;;5.40;99.90;;;;;;5072062;28;20480;-73
2022/12/05 08:03:52;;;;;;;51.95;29.45;;;5.30;99.90;;;;;;5078553;28;20469;-74
2022/12/05 08:06:21;;;;;;;52.17;28.75;;;5.30;99.90;;;;;;5069900;28;20432;-73
2022/12/05 08:08:50;;;;;;;50.00;28.90;;;5.30;99.90;;;;;;5071636;28;20024;-73
2022/12/05 08:11:17;;;;;;;53.78;29.42;;;5.40;99.90;;;;;;5072093;28;20393;-74
2022/12/05 08:13:43;;;;;;;54.53;28.33;;;5.60;99.90;;;;;;5070163;28;20103;-74
2022/12/05 08:16:17;;;;;;;53.33;29.20;;;5.70;99.90;;;;;;5077765;28;20020;-73
2022/12/05 08:18:43;;;;;;;44.50;27.25;;;5.50;99.90;;;;;;5070269;28;20420;-73
2022/12/05 08:21:19;;;;;;;45.58;26.60;;;5.40;99.90;;;;;;5071862;28;20025;-73
2022/12/05 08:23:45;;;;;;;46.65;26.88;;;5.40;99.90;;;;;;5063645;28;20033;-74
2022/12/05 08:26:17;;;;;;;42.28;27.13;;;5.50;99.90;;;;;;5067979;28;20107;-74
2022/12/05 08:28:43;;;;;;;43.28;25.98;;;5.40;99.90;;;;;;5071000;28;20028;-75
2022/12/05 08:31:14;;;;;;;42.83;26.35;;;5.50;99.90;;;;;;5070116;28;20048;-73
2022/12/05 08:33:41;;;;;;;38.28;24.98;;;5.50;99.90;;;;;;5069963;28;20101;-74
2022/12/05 08:36:10;;;;;;;38.95;24.40;;;5.40;99.90;;;;;;5058197;28;20033;-73
2022/12/05 08:38:36;;;;;;;40.22;24.08;;;5.60;99.90;;;;;;5055731;28;20025;-73
2022/12/05 08:41:04;;;;;;;39.03;25.42;;;5.70;99.90;;;;;;5068738;28;20349;-74
2022/12/05 08:43:31;;;;;;;43.15;25.33;;;5.80;99.90;;;;;;5069807;28;20111;-74
2022/12/05 08:45:57;;;;;;;43.15;25.15;;;5.90;99.90;;;;;;5070371;28;20036;-74
2022/12/05 08:48:25;;;;;;;37.92;23.63;;;5.90;99.90;;;;;;5068439;28;20404;-75
2022/12/05 08:50:50;;;;;;;36.28;23.27;;;5.80;99.90;;;;;;5063042;28;20021;-74
2022/12/05 08:53:16;;;;;;;38.88;23.73;;;6.00;99.90;;;;;;5070270;28;20556;-74
2022/12/05 08:55:44;;;;;;;39.22;22.50;;;5.90;99.90;;;;;;5070764;28;20025;-74
2022/12/05 08:58:10;;;;;;;36.80;23.65;;;5.90;99.90;;;;;;5065542;28;20040;-73
2022/12/05 09:00:36;;;;;;;38.80;23.90;;;5.90;99.90;;;;;;5069454;28;20132;-73
2022/12/05 09:03:02;;;;;;;42.28;24.52;;;5.90;99.90;;;;;;5065814;28;20197;-74
2022/12/05 09:05:28;;;;;;;39.83;25.13;;;5.80;99.90;;;;;;5068538;28;20039;-74
2022/12/05 09:07:54;;;;;;;40.45;24.17;;;5.90;99.90;;;;;;5070587;28;20476;-74
2022/12/05 09:10:20;;;;;;;39.95;23.33;;;5.90;99.90;;;;;;5069806;28;20063;-74
2022/12/05 09:12:46;;;;;;;37.28;22.27;;;5.90;99.90;;;;;;5069423;28;20021;-74
2022/12/05 09:15:12;;;;;;;36.78;21.35;;;5.80;99.90;;;;;;5073364;28;20082;-74
2022/12/05 09:17:38;;;;;;;36.33;22.95;;;5.90;99.90;;;;;;5074544;28;20025;-74
2022/12/05 09:20:05;;;;;;;32.72;21.85;;;6.10;99.90;;;;;;5071833;28;20028;-74
2022/12/05 09:22:32;;;;;;;30.45;19.13;;;6.10;99.90;;;;;;5065185;28;20048;-75
2022/12/05 09:24:59;;;;;;;30.55;19.58;;;5.90;99.90;;;;;;5073039;28;20083;-74
2022/12/05 09:27:27;;;;;;;30.42;19.55;;;5.80;99.90;;;;;;5073788;28;20542;-74
2022/12/05 09:29:53;;;;;;;32.38;19.60;;;5.80;99.90;;;;;;5074688;28;20381;-74
2022/12/05 09:32:18;;;;;;;30.92;17.45;;;5.70;99.90;;;;;;5073808;28;20032;-74
2022/12/05 09:34:44;;;;;;;22.77;15.50;;;5.70;99.90;;;;;;5073322;28;20021;-74
2022/12/05 09:37:10;;;;;;;22.25;14.02;;;5.50;99.90;;;;;;5074515;28;20032;-74
2022/12/05 09:39:36;;;;;;;20.48;13.10;;;5.50;99.90;;;;;;5074097;28;20457;-74
2022/12/05 09:42:24;;;;;;;21.20;12.93;;;5.50;99.90;;;;;;5074425;28;20035;-74
2022/12/05 09:45:21;;;;;;;21.67;12.30;;;5.60;99.90;;;;;;5079214;28;20476;-74
2022/12/05 09:47:58;;;;;;;18.45;12.25;;;5.50;99.90;;;;;;5075083;28;20481;-75
2022/12/05 09:50:26;;;;;;;20.88;12.80;;;5.60;99.90;;;;;;5074443;28;20377;-74
2022/12/05 09:53:04;;;;;;;18.52;11.80;;;5.30;99.90;;;;;;5072494;28;20420;-74
2022/12/05 09:56:08;;;;;;;20.00;11.68;;;5.50;99.90;;;;;;5073574;28;20544;-74
2022/12/05 09:58:49;;;;;;;18.73;11.55;;;5.50;99.90;;;;;;5061923;28;20066;-74
2022/12/05 10:01:40;;;;;;;18.63;11.82;;;5.50;99.90;;;;;;5073639;28;20040;-74
2022/12/05 10:04:33;;;;;;;17.33;10.77;;;5.50;99.90;;;;;;5073572;28;20082;-74
2022/12/05 10:06:59;;;;;;;19.90;10.50;;;5.50;99.90;;;;;;5074817;28;20048;-74
2022/12/05 10:09:50;;;;;;;16.38;10.75;;;5.70;99.90;;;;;;5074754;28;20021;-74
2022/12/05 10:12:42;;;;;;;16.17;10.43;;;5.70;99.90;;;;;;5057927;28;20473;-73
2022/12/05 10:15:31;;;;;;;19.40;10.80;;;5.70;99.90;;;;;;5071789;28;20033;-75
2022/12/05 10:18:01;;;;;;;26.42;18.02;;;5.90;99.90;;;;;;5074874;28;20037;-74
2022/12/05 10:20:39;;;;;;;21.13;13.93;;;5.90;99.90;;;;;;5074574;28;20033;-75
2022/12/05 10:23:14;;;;;;;26.15;14.25;;;6.10;99.90;;;;;;5074098;28;20127;-75
2022/12/05 10:25:41;;;;;;;20.85;13.55;;;6.00;99.90;;;;;;5073185;28;20020;-74
2022/12/05 10:28:35;;;;;;;25.77;15.93;;;6.00;99.90;;;;;;5074572;28;20503;-74
2022/12/05 10:31:06;;;;;;;28.98;15.30;;;6.20;99.90;;;;;;5073022;28;20373;-74
2022/12/05 10:33:38;;;;;;;22.70;15.38;;;6.10;99.90;;;;;;5074110;28;20384;-75
2022/12/05 10:36:14;;;;;;;22.40;13.85;;;6.20;99.90;;;;;;5074297;28;20063;-75
2022/12/05 10:38:42;;;;;;;24.60;14.00;;;6.50;99.90;;;;;;5067277;28;20029;-74
2022/12/05 10:41:10;;;;;;;22.95;13.13;;;6.40;99.90;;;;;;5069013;28;20009;-75
2022/12/05 10:43:40;;;;;;;19.23;13.73;;;6.00;99.90;;;;;;5068929;28;20028;-74
2022/12/05 10:46:06;;;;;;;25.23;14.57;;;5.70;99.90;;;;;;5070128;28;20019;-74
2022/12/05 10:48:36;;;;;;;20.02;13.20;;;5.60;99.90;;;;;;5072132;28;20115;-73
2022/12/05 10:51:04;;;;;;;20.77;13.68;;;5.50;99.90;;;;;;5073091;28;20117;-74
2022/12/05 10:53:40;;;;;;;21.33;13.20;;;5.70;99.90;;;;;;5072481;28;20058;-74
2022/12/05 10:56:36;;;;;;;22.25;13.27;;;6.20;99.90;;;;;;5073077;28;20029;-75
2022/12/05 10:59:04;;;;;;;18.77;12.27;;;6.20;99.90;;;;;;5066278;28;20033;-75
2022/12/05 11:01:30;;;;;;;21.42;13.85;;;6.00;99.90;;;;;;5072796;28;20090;-75
2022/12/05 11:04:03;;;;;;;20.08;12.73;;;6.40;99.90;;;;;;5071965;28;20056;-75
2022/12/05 11:06:31;;;;;;;20.25;12.25;;;6.40;99.90;;;;;;5072164;28;20036;-75
2022/12/05 11:09:03;;;;;;;18.40;11.65;;;6.50;99.90;;;;;;5068291;28;20040;-75
2022/12/05 11:11:32;;;;;;;19.00;12.60;;;6.70;99.90;;;;;;5069650;28;20020;-75
2022/12/05 11:14:02;;;;;;;22.25;12.95;;;6.70;99.90;;;;;;5071652;28;20032;-75
2022/12/05 11:16:32;;;;;;;21.85;12.70;;;6.60;99.90;;;;;;5071389;28;20036;-75
2022/12/05 11:19:27;;;;;;;19.23;12.35;;;6.60;99.90;;;;;;5072555;28;20103;-75
2022/12/05 11:21:54;;;;;;;21.75;13.15;;;6.80;99.90;;;;;;5068915;28;20411;-75
2022/12/05 11:24:22;;;;;;;22.75;12.57;;;6.60;99.90;;;;;;5073148;28;20035;-73
2022/12/05 11:26:48;;;;;;;19.55;11.23;;;6.60;99.90;;;;;;5072257;28;20105;-73
2022/12/05 11:29:43;;;;;;;18.50;12.43;;;6.70;99.90;;;;;;5072548;28;20028;-73
2022/12/05 11:32:18;;;;;;;17.05;11.50;;;6.90;99.90;;;;;;5058463;28;20051;-73
2022/12/05 11:35:23;;;;;;;18.55;11.30;;;6.50;99.90;;;;;;5072132;28;20041;-72
2022/12/05 11:37:56;;;;;;;18.33;11.40;;;6.70;99.90;;;;;;5037054;28;20093;-72
2022/12/05 11:40:25;;;;;;;18.15;12.02;;;6.50;99.90;;;;;;5068898;28;20048;-75
2022/12/05 11:43:04;;;;;;;17.35;11.77;;;6.70;99.90;;;;;;5072476;28;20032;-74
2022/12/05 11:46:02;;;;;;;26.95;11.57;;;7.00;99.90;;;;;;5072805;28;20105;-75
2022/12/05 11:49:08;;;;;;;19.23;11.82;;;7.10;99.90;;;;;;5060421;28;20489;-76
2022/12/05 11:51:45;;;;;;;19.73;12.23;;;6.90;99.90;;;;;;5072553;28;20021;-76
2022/12/05 11:54:52;;;;;;;17.77;12.48;;;6.70;99.90;;;;;;5072730;28;20037;-74
2022/12/05 11:57:32;;;;;;;18.00;11.25;;;6.80;99.90;;;;;;5036098;28;20041;-75
2022/12/05 12:00:07;;;;;;;19.60;12.23;;;6.20;99.90;;;;;;5071022;28;20548;-75
2022/12/05 12:03:10;;;;;;;18.52;11.70;;;6.10;99.90;;;;;;5075588;28;20399;-75
2022/12/05 12:06:04;;;;;;;20.48;12.50;;;6.20;99.90;;;;;;5061177;28;20082;-75
2022/12/05 12:08:53;;;;;;;20.15;12.07;;;6.40;99.90;;;;;;5072376;28;20032;-75
2022/12/05 12:11:28;;;;;;;27.50;12.98;;;6.20;99.90;;;;;;5072736;28;20120;-76
2022/12/05 12:14:36;;;;;;;24.55;13.60;;;6.60;99.90;;;;;;5059736;28;20024;-75
2022/12/05 12:17:33;;;;;;;20.52;12.82;;;6.70;99.90;;;;;;5034390;28;20047;-75
2022/12/05 12:20:14;;;;;;;20.30;13.00;;;6.50;99.90;;;;;;5072681;28;20384;-75
2022/12/05 12:22:51;;;;;;;23.05;13.82;;;6.20;99.90;;;;;;5072901;28;20369;-75
2022/12/05 12:25:48;;;;;;;23.08;14.45;;;5.90;99.90;;;;;;5071420;28;20496;-76
2022/12/05 12:29:06;;;;;;;20.85;14.38;;;5.70;99.90;;;;;;5072303;28;20041;-74
2022/12/05 12:31:50;;;;;;;30.50;14.63;;;5.80;99.90;;;;;;5000524;28;20030;-75
2022/12/05 12:34:28;;;;;;;27.98;15.75;;;6.00;99.90;;;;;;5058816;28;20039;-75
2022/12/05 12:37:17;;;;;;;23.27;15.18;;;5.90;99.90;;;;;;5072341;28;20090;-74
2022/12/05 12:40:01;;;;;;;21.77;14.93;;;6.00;99.90;;;;;;5058807;28;20102;-75
2022/12/05 12:42:34;;;;;;;29.08;17.10;;;6.30;99.90;;;;;;5072009;28;20058;-75
2022/12/05 12:45:08;;;;;;;24.80;15.52;;;5.90;99.90;;;;;;5072532;28;20029;-75
2022/12/05 12:47:52;;;;;;;28.40;16.38;;;5.90;99.90;;;;;;5070196;28;20756;-74
2022/12/05 12:50:45;;;;;;;24.58;16.30;;;5.80;99.90;;;;;;5057985;28;20043;-75
2022/12/05 12:53:20;;;;;;;27.88;17.38;;;5.60;99.90;;;;;;5073784;28;20028;-75
2022/12/05 12:56:05;;;;;;;28.33;17.40;;;5.70;99.90;;;;;;5074966;28;20123;-75
2022/12/05 12:59:32;;;;;;;27.95;18.58;;;5.60;99.90;;;;;;5062366;28;20073;-75
2022/12/05 13:02:17;;;;;;;31.88;16.83;;;5.60;99.90;;;;;;4978901;28;20034;-75
2022/12/05 13:05:00;;;;;;;43.95;24.20;;;5.50;99.90;;;;;;4994083;28;20045;-75
2022/12/05 13:08:12;;;;;;;37.95;21.65;;;5.60;99.90;;;;;;5052547;28;20489;-74
2022/12/05 13:10:44;;;;;;;34.72;22.17;;;5.50;99.90;;;;;;5016208;28;20083;-75
2022/12/05 13:13:16;;;;;;;35.05;19.08;;;5.40;99.90;;;;;;5075641;28;20039;-75